createdAt,value
2023-01-23T05:42:06.246Z,100225.51
2023-01-23T05:44:48.636Z,100229.27
2023-01-23T05:47:25.412Z,100231.98
2023-01-23T05:49:52.733Z,100237.41
2023-01-23T05:52:21.921Z,100239.45
2023-01-23T05:54:49.115Z,100241.33
2023-01-23T05:57:35.531Z,100245.77
2023-01-23T06:00:22.318Z,100247.98
2023-01-23T06:03:11.306Z,100250.71
2023-01-23T06:05:53.521Z,100249.02
2023-01-23T06:08:20.856Z,100250.05
2023-01-23T06:10:47.906Z,100256.19
2023-01-23T06:13:14.951Z,100260.16
2023-01-23T06:15:45.499Z,100261.52
2023-01-23T06:18:12.792Z,100266.96
2023-01-23T06:20:39.873Z,100270.88
2023-01-23T06:23:08.529Z,100269.17
2023-01-23T06:25:37.051Z,100273.42
2023-01-23T06:28:05.731Z,100282.80
2023-01-23T06:30:34.442Z,100286.04
2023-01-23T06:33:42.562Z,100287.92
2023-01-23T06:36:13.784Z,100291.34
2023-01-23T06:38:40.678Z,100293.55
2023-01-23T06:41:10.588Z,100297.15
2023-01-23T06:43:43.749Z,100297.30
2023-01-23T06:46:15.398Z,100294.22
2023-01-23T06:48:42.533Z,100295.39
2023-01-23T06:51:09.763Z,100296.42
2023-01-23T06:53:38.403Z,100303.74
2023-01-23T06:56:29.633Z,100304.60
2023-01-23T06:58:57.129Z,100303.41
2023-01-23T07:01:30.329Z,100306.48
2023-01-23T07:04:03.492Z,100302.05
2023-01-23T07:06:30.796Z,100302.39
2023-01-23T07:08:58.014Z,100297.61
2023-01-23T07:14:31.227Z,100302.34
2023-01-23T07:16:58.533Z,100301.98
2023-01-23T07:19:25.816Z,100302.50
2023-01-23T07:21:53.643Z,100304.38
2023-01-23T07:24:22.813Z,100306.95
2023-01-23T07:26:51.079Z,100306.79
2023-01-23T07:29:18.344Z,100312.06
2023-01-23T07:31:45.546Z,100308.98
2023-01-23T07:34:12.822Z,100312.20
2023-01-23T07:36:40.185Z,100311.20
2023-01-23T07:39:07.683Z,100313.42
2023-01-23T07:41:34.904Z,100313.92
2023-01-23T07:44:08.020Z,100311.86
2023-01-23T07:46:36.291Z,100314.78
2023-01-23T07:49:03.740Z,100310.02
2023-01-23T07:51:31.058Z,100310.53
2023-01-23T07:53:58.248Z,100308.65
2023-01-23T07:56:25.185Z,100309.31
2023-01-23T07:58:57.409Z,100312.05
2023-01-23T08:01:24.715Z,100313.90
2023-01-23T08:03:53.972Z,100311.34
2023-01-23T08:06:21.169Z,100310.80
2023-01-23T08:08:49.039Z,100312.33
2023-01-23T08:11:16.067Z,100314.23
2023-01-23T08:13:43.129Z,100320.04
2023-01-23T08:16:12.049Z,100329.05
2023-01-23T08:18:43.888Z,100336.17
2023-01-23T08:21:11.112Z,100342.30
2023-01-23T08:23:39.181Z,100345.69
2023-01-23T08:26:06.921Z,100349.06
2023-01-23T08:28:36.756Z,100354.15
2023-01-23T08:31:07.676Z,100353.11
2023-01-23T08:33:35.584Z,100352.45
2023-01-23T08:36:02.931Z,100353.98
2023-01-23T08:38:30.579Z,100354.47
2023-01-23T08:41:00.267Z,100354.79
2023-01-23T08:43:33.562Z,100356.46
2023-01-23T08:46:00.943Z,100351.34
2023-01-23T08:48:28.886Z,100350.33
2023-01-23T08:51:01.109Z,100349.46
2023-01-23T08:53:30.569Z,100349.29
2023-01-23T08:56:05.506Z,100347.27
2023-01-23T09:01:26.306Z,100345.10
2023-01-23T09:03:53.466Z,100347.16
2023-01-23T09:06:21.252Z,100348.00
2023-01-23T09:08:50.905Z,100345.09
2023-01-23T09:11:21.548Z,100348.98
2023-01-23T09:13:48.946Z,100349.17
2023-01-23T09:16:16.510Z,100345.92
2023-01-23T09:18:43.677Z,100352.05
2023-01-23T09:21:13.370Z,100352.73
2023-01-23T09:23:44.792Z,100348.96
2023-01-23T09:26:14.713Z,100345.58
2023-01-23T09:28:42.680Z,100344.72
2023-01-23T09:31:11.648Z,100348.14
2023-01-23T09:33:39.231Z,100342.50
2023-01-23T09:36:41.364Z,100345.04
2023-01-23T09:39:09.462Z,100343.48
2023-01-23T09:41:36.641Z,100340.20
2023-01-23T09:44:10.302Z,100341.35
2023-01-23T09:47:02.801Z,100339.23
2023-01-23T09:49:46.998Z,100336.70
2023-01-23T09:52:19.814Z,100332.13
2023-01-23T09:55:24.296Z,100334.19
2023-01-23T09:57:56.072Z,100331.98
2023-01-23T10:00:32.081Z,100325.66
2023-01-23T10:03:04.508Z,100323.95
2023-01-23T10:06:01.840Z,100318.99
2023-01-23T10:08:39.986Z,100308.89
2023-01-23T10:11:10.708Z,100311.73
2023-01-23T10:13:45.708Z,100312.88
2023-01-23T10:16:48.753Z,100306.20
2023-01-23T10:19:38.558Z,100307.88
2023-01-23T10:22:46.747Z,100308.37
2023-01-23T10:25:25.320Z,100304.44
2023-01-23T10:27:53.987Z,100299.02
2023-01-23T10:30:32.215Z,100296.86
2023-01-23T10:33:00.415Z,100296.20
2023-01-23T10:35:38.927Z,100292.95
2023-01-23T10:38:31.666Z,100296.40
2023-01-23T10:41:13.979Z,100301.70
2023-01-23T10:43:42.176Z,100301.39
2023-01-23T10:46:35.935Z,100299.69
2023-01-23T10:49:03.426Z,100302.92
2023-01-23T10:51:32.811Z,100297.44
2023-01-23T10:54:11.335Z,100298.77
2023-01-23T10:56:51.814Z,100298.92
2023-01-23T10:59:24.359Z,100293.27
2023-01-23T11:02:00.165Z,100292.91
2023-01-23T11:04:35.478Z,100285.74
2023-01-23T11:07:19.062Z,100283.05
2023-01-23T11:09:49.272Z,100280.65
2023-01-23T11:12:27.725Z,100281.63
2023-01-23T11:15:21.687Z,100280.40
2023-01-23T11:17:50.955Z,100279.36
2023-01-23T11:20:33.576Z,100282.23
2023-01-23T11:23:17.198Z,100276.59
2023-01-23T11:25:49.578Z,100276.40
2023-01-23T11:28:23.804Z,100282.58
2023-01-23T11:31:03.741Z,100277.13
2023-01-23T11:33:57.252Z,100282.63
2023-01-23T11:36:47.354Z,100278.20
2023-01-23T11:39:17.616Z,100280.08
2023-01-23T11:41:45.906Z,100280.23
2023-01-23T11:44:18.696Z,100277.98
2023-01-23T11:46:55.800Z,100279.20
2023-01-23T11:49:44.514Z,100281.62
2023-01-23T11:52:54.489Z,100281.48
2023-01-23T11:56:04.311Z,100278.09
2023-01-23T11:59:15.980Z,100276.58
2023-01-23T12:02:12.393Z,100275.60
2023-01-23T12:05:12.066Z,100278.33
2023-01-23T12:07:53.227Z,100280.04
2023-01-23T12:10:28.938Z,100282.42
2023-01-23T12:13:08.535Z,100286.18
2023-01-23T12:16:00.302Z,100287.77
2023-01-23T12:19:05.114Z,100286.07
2023-01-23T12:21:44.927Z,100281.64
2023-01-23T12:24:15.177Z,100281.34
2023-01-23T12:27:02.105Z,100275.38
2023-01-23T12:29:38.017Z,100276.20
2023-01-23T12:32:27.851Z,100273.15
2023-01-23T12:35:04.879Z,100274.32
2023-01-23T12:37:43.602Z,100273.11
2023-01-23T12:40:13.378Z,100279.45
2023-01-23T12:43:22.772Z,100278.27
2023-01-23T12:45:57.752Z,100276.75
2023-01-23T12:48:32.230Z,100280.36
2023-01-23T12:51:04.938Z,100282.38
2023-01-23T12:53:55.896Z,100283.02
2023-01-23T12:56:29.032Z,100284.57
2023-01-23T12:59:31.372Z,100288.47
2023-01-23T13:02:07.663Z,100289.48
2023-01-23T13:04:55.960Z,100292.89
2023-01-23T13:07:42.590Z,100287.60
2023-01-23T13:11:00.765Z,100291.70
2023-01-23T13:13:27.921Z,100289.35
2023-01-23T13:16:02.900Z,100288.86
2023-01-23T13:18:30.312Z,100285.96
2023-01-23T13:21:17.944Z,100289.54
2023-01-23T13:23:47.981Z,100289.67
2023-01-23T13:26:23.349Z,100288.83
2023-01-23T13:29:11.230Z,100286.42
2023-01-23T13:31:47.328Z,100284.73
2023-01-23T13:34:17.988Z,100283.01
2023-01-23T13:36:51.563Z,100277.67
2023-01-23T13:39:19.924Z,100277.34
2023-01-23T13:42:16.047Z,100280.61
2023-01-23T13:45:21.381Z,100281.48
2023-01-23T14:21:52.538Z,100289.64
2023-01-23T14:24:22.298Z,100292.71
2023-01-23T14:26:51.032Z,100295.27
2023-01-23T14:29:23.352Z,100296.31
2023-01-23T14:31:53.911Z,100300.91
2023-01-23T14:34:22.602Z,100302.28
2023-01-23T14:37:06.020Z,100301.24
2023-01-23T14:39:34.384Z,100297.98
2023-01-23T14:42:02.799Z,100296.30
2023-01-23T14:44:42.826Z,100291.84
2023-01-23T14:47:12.060Z,100296.77
2023-01-23T14:49:39.816Z,100298.46
2023-01-23T14:52:07.790Z,100300.34
2023-01-23T14:54:36.869Z,100297.08
2023-01-23T14:57:05.744Z,100297.27
2023-01-23T14:59:35.218Z,100297.98
2023-01-23T15:02:13.035Z,100300.42
2023-01-23T15:04:43.541Z,100300.60
2023-01-23T15:15:16.604Z,100304.70
2023-01-23T15:17:44.651Z,100308.46
2023-01-23T15:23:18.784Z,100313.98
2023-01-23T15:25:51.720Z,100316.41
2023-01-23T15:28:32.337Z,100313.71
2023-01-23T15:30:59.225Z,100320.38
2023-01-23T15:33:28.238Z,100318.15
2023-01-23T15:36:05.191Z,100320.86
2023-01-23T15:38:32.095Z,100326.50
2023-01-23T15:40:59.755Z,100323.95
2023-01-23T15:43:26.710Z,100325.65
